Weldon, CA (93283)

10:08 PM PDT on October 21, 2014 (GMT -0700)
Squirrel Mountain Valley | Change Station
CLOSE
Current Station
Personal Weather Station
Location: Squirrel Mountain Valley, CA
Elevation: 2884 ft
Nearby Weather Stations

Elev 2884 ft 35.63 °N, 118.41 °W | Updated 6 seconds ago

Clear
Clear
54.3 °F
Feels Like 54.3 °F
N
0.0
Wind Variable Wind from WSW
Gusts 1.0 mph

Today
High -- | Low -- °F
--% Chance of Precip.
Yesterday
High -- | Low -- °F
Precip. -- in
7:04 AM 6:09 PM
Waning Crescent, 3% visible
Pressure 29.86 in
Visibility 10.0 miles
Clouds Few 27000 ft
Dew Point 42 °F
Humidity 62%
Rainfall 0.00 in
Snow Depth Not available.
UV 0 out of 12
Pollen 4.20 out of 12
Ozone Good
PM2.5 Good
Flu Activity Sporadic
METAR KNID 220456Z 19008KT 10SM FEW270 18/02 A2989 RMK AO2 SLP112 T01780022 $

More Conditions Fewer Conditions

Pressure 29.86 in
Visibility 10.0 miles
Clouds Few 27000 ft
Dew Point 42 °F
Humidity 62%
Rainfall 0.00 in
Snow Depth Not available.
UV 0 out of 12
Pollen 4.20 out of 12
Ozone Good
PM2.5 Good
Flu Activity Sporadic
METAR KNID 220456Z 19008KT 10SM FEW270 18/02 A2989 RMK AO2 SLP112 T01780022 $

More Conditions Fewer Conditions

10-Day Weather Forecast

Almanac

Astronomy

Oct. 21, 2014 Rise Set
Actual Time 7:04 AM PDT 6:09 PM PDT
Civil Twilight 6:39 AM PDT 6:35 PM PDT
Nautical Twilight 6:09 AM PDT 7:05 PM PDT
Astronomical Twilight 5:39 AM PDT 7:35 PM PDT
Moon 4:58 AM PDT (10/21) 5:03 PM PDT (10/21)
Length of Visible Light 11h 56m
Length of Day
11h 05m
Tomorrow will be 2m 7s shorter.
Waning Crescent, 3% of the Moon is Illuminated
Oct 22
Waning Crescent
Oct 23
New
Oct 30
First Quarter
Nov 6
Full
Nov 14
Last Quarter

Yesterday's Extremes

State Highs State Lows

Community

WunderPhotos

Upload Photos

1,763,884 photos uploaded!

Nearby

Air Quality

  Air Quality AQ Index Pollutant
Yesterday Good
OZONE
Yesterday Good
PM2.5
Current Good
OZONE
Current Good
PM2.5
Tuesday Moderate
PM10
Wednesday Moderate
PM10
Thursday Moderate
PM10
Friday Moderate
PM10
Saturday Moderate
PM10
Sunday Moderate
PM10

Snow Depth

Station Depth Elevation
Virginia Lakes Ridge 0 in 9200 ft
Leavitt Lake 1 in 9400 ft
Leavitt Meadows 1 in 7200 ft
Sonora Pass 0 in 8800 ft
Summit Meadow 2 in 9122 ft

Earthquake Activity

City Distance Mag. Time & Date
Mammoth Lakes, California 130 miles 3.0 11:10 PM PDT
2014-10-20
Lone Pine, California 41 miles 2.6 5:26 AM PDT
2014-10-19
Dixon Lane-Meadow Creek, California 134 miles 2.6 5:32 PM PDT
2014-10-18
Minimum magnitude displayed is 2.5.

Coastal Water Temperatures

Place Temperature
No Stations Reporting

Nearby Weather Stations